Date,TemperatureHighF,TemperatureAvgF,TemperatureLowF,DewpointHighF,DewpointAvgF,DewpointLowF,HumidityHigh,HumidityAvg,HumidityLow,PressureMaxIn,PressureMinIn,WindSpeedMaxMPH,WindSpeedAvgMPH,GustSpeedMaxMPH,PrecipitationSumIn
2013-3-1,47,41,34,36,31,26,93,70,50,29.68,29.51,9,2,14,0.00
2013-3-2,39,36,32,31,27,26,82,70,62,29.69,29.62,11,3,15,0.00
2013-3-3,38,34,30,27,25,23,82,71,57,29.65,29.57,10,3,12,0.00
2013-3-4,41,33,28,24,22,20,81,64,50,29.77,29.62,16,6,25,0.00
2013-3-5,48,37,30,35,27,21,86,69,49,30.02,29.77,10,2,18,0.00
2013-3-6,42,38,36,36,33,31,89,81,70,30.00,29.86,20,8,31,0.00
2013-3-7,40,36,32,32,30,28,93,80,67,29.95,29.83,19,8,31,0.02
2013-3-8,39,33,30,33,30,26,96,89,62,30.07,29.88,14,4,31,0.22
2013-3-9,54,41,33,36,25,18,84,57,25,30.31,30.07,11,3,15,0.10
2013-3-10,43,36,30,35,32,28,92,83,73,30.37,30.30,4,1,8,0.00
2013-3-11,47,41,37,43,38,34,97,90,82,30.31,30.12,3,0,4,0.00
2013-3-12,49,46,41,49,44,40,98,96,90,30.12,29.70,6,1,11,0.54
2013-3-13,50,42,34,43,32,26,93,68,41,29.80,29.72,12,3,18,0.01
2013-3-14,38,32,29,29,20,11,90,60,40,29.86,29.76,23,5,24,0.00
2013-3-15,41,34,26,30,19,10,71,55,43,29.90,29.68,15,5,24,0.00
2013-3-16,40,34,29,29,22,10,83,62,32,29.86,29.71,7,2,16,0.00
2013-3-17,38,32,28,29,14,6,85,49,28,30.28,29.86,13,3,21,0.00
2013-3-18,35,30,23,29,15,4,91,56,33,30.42,30.11,16,4,19,0.00
2013-3-19,41,36,31,38,34,29,96,92,85,30.10,29.55,15,6,22,0.67
2013-3-20,42,35,30,31,24,19,95,64,42,29.80,29.70,16,4,22,0.00
2013-3-21,38,34,30,31,24,20,86,69,59,29.80,29.58,9,2,12,0.00
2013-3-22,40,34,26,25,18,12,70,53,39,29.78,29.63,11,4,17,0.00
2013-3-23,46,38,31,24,21,16,72,53,32,29.83,29.68,17,4,24,0.00
2013-3-24,47,38,31,33,24,18,81,59,41,29.87,29.68,7,3,14,0.00
2013-3-25,44,38,34,33,30,25,92,72,51,29.73,29.41,14,4,21,0.03
2013-3-26,47,39,30,35,29,23,84,68,44,29.79,29.49,5,1,10,0.00
2013-3-27,52,41,29,34,26,21,73,56,33,29.86,29.75,11,2,19,0.00
2013-3-28,49,42,38,36,32,27,76,68,51,30.02,29.85,6,2,13,0.00
2013-3-29,54,46,39,38,33,28,83,61,46,30.05,29.98,12,3,23,0.00
2013-3-30,54,46,38,35,30,17,73,56,23,30.10,30.01,12,2,21,0.00
2013-3-31,52,42,30,43,37,27,96,82,64,30.11,29.64,8,1,15,0.09